Terminal Aerodrome Forecast
Issued by NWS

Home | Current Version | Previous Version | Graphics & Text | Print | Product List | Glossary On
Versions: 1 2 3 4 5 6 7 8 9 10 11 12 13 14 15 16 17
000
FTUS43 KMPX 171824 CCA
TAFRWF
TAF COR
KRWF 171824Z 1718/1818 19012KT P6SM SCT070 SCT250
     FM180200 14009KT P6SM FEW250
     FM181500 15013G21KT P6SM FEW250=

USA.gov is the U.S. government's official web portal to all federal, state and local government web resources and services.